sensor_id;sensor_type;location;lat;lon;timestamp;P1;durP1;ratioP1;P2;durP2;ratioP2
10052;SDS011;52418;53.134;8.236;2023-03-13T00:00:03;2.30;;;2.20;;
10052;SDS011;52418;53.134;8.236;2023-03-13T00:02:30;2.13;;;2.03;;
10052;SDS011;52418;53.134;8.236;2023-03-13T00:04:55;2.15;;;2.05;;
10052;SDS011;52418;53.134;8.236;2023-03-13T00:07:20;2.13;;;2.03;;
10052;SDS011;52418;53.134;8.236;2023-03-13T00:09:45;2.25;;;2.15;;
10052;SDS011;52418;53.134;8.236;2023-03-13T00:12:10;2.30;;;2.20;;
10052;SDS011;52418;53.134;8.236;2023-03-13T00:14:36;2.30;;;2.20;;
10052;SDS011;52418;53.134;8.236;2023-03-13T00:17:01;2.10;;;2.00;;
10052;SDS011;52418;53.134;8.236;2023-03-13T00:19:26;2.13;;;2.03;;
10052;SDS011;52418;53.134;8.236;2023-03-13T00:21:52;2.10;;;2.00;;
10052;SDS011;52418;53.134;8.236;2023-03-13T00:24:17;2.20;;;2.10;;
10052;SDS011;52418;53.134;8.236;2023-03-13T00:26:42;2.30;;;2.20;;
10052;SDS011;52418;53.134;8.236;2023-03-13T00:29:07;2.20;;;2.10;;
10052;SDS011;52418;53.134;8.236;2023-03-13T00:31:32;2.13;;;2.03;;
10052;SDS011;52418;53.134;8.236;2023-03-13T00:33:58;2.17;;;2.07;;
10052;SDS011;52418;53.134;8.236;2023-03-13T00:36:25;2.30;;;2.20;;
10052;SDS011;52418;53.134;8.236;2023-03-13T00:38:51;2.00;;;1.90;;
10052;SDS011;52418;53.134;8.236;2023-03-13T00:41:17;2.07;;;1.97;;
10052;SDS011;52418;53.134;8.236;2023-03-13T00:43:43;2.10;;;2.00;;
10052;SDS011;52418;53.134;8.236;2023-03-13T00:46:09;1.90;;;1.80;;
10052;SDS011;52418;53.134;8.236;2023-03-13T00:48:34;2.00;;;1.90;;
10052;SDS011;52418;53.134;8.236;2023-03-13T00:51:00;2.10;;;2.00;;
10052;SDS011;52418;53.134;8.236;2023-03-13T00:53:25;2.10;;;2.00;;
10052;SDS011;52418;53.134;8.236;2023-03-13T00:55:51;2.20;;;2.10;;
10052;SDS011;52418;53.134;8.236;2023-03-13T00:58:17;2.20;;;2.10;;
10052;SDS011;52418;53.134;8.236;2023-03-13T01:00:42;2.20;;;2.10;;
10052;SDS011;52418;53.134;8.236;2023-03-13T01:03:07;2.00;;;1.90;;
10052;SDS011;52418;53.134;8.236;2023-03-13T01:05:32;2.25;;;2.15;;
10052;SDS011;52418;53.134;8.236;2023-03-13T01:07:57;2.22;;;2.13;;
10052;SDS011;52418;53.134;8.236;2023-03-13T01:10:22;2.20;;;2.10;;
10052;SDS011;52418;53.134;8.236;2023-03-13T01:12:47;2.20;;;2.10;;
10052;SDS011;52418;53.134;8.236;2023-03-13T01:15:13;2.28;;;2.17;;
10052;SDS011;52418;53.134;8.236;2023-03-13T01:17:38;2.10;;;2.00;;
10052;SDS011;52418;53.134;8.236;2023-03-13T01:20:03;2.13;;;2.03;;
10052;SDS011;52418;53.134;8.236;2023-03-13T01:22:29;2.07;;;1.97;;
10052;SDS011;52418;53.134;8.236;2023-03-13T01:24:54;2.20;;;2.10;;
10052;SDS011;52418;53.134;8.236;2023-03-13T01:27:19;2.05;;;1.95;;
10052;SDS011;52418;53.134;8.236;2023-03-13T01:29:44;2.00;;;1.90;;
10052;SDS011;52418;53.134;8.236;2023-03-13T01:32:10;2.10;;;2.00;;
10052;SDS011;52418;53.134;8.236;2023-03-13T01:34:35;2.00;;;1.90;;
10052;SDS011;52418;53.134;8.236;2023-03-13T01:37:00;2.10;;;2.00;;
10052;SDS011;52418;53.134;8.236;2023-03-13T01:39:26;2.03;;;1.92;;
10052;SDS011;52418;53.134;8.236;2023-03-13T01:41:51;2.00;;;1.90;;
10052;SDS011;52418;53.134;8.236;2023-03-13T01:44:21;1.97;;;1.87;;
10052;SDS011;52418;53.134;8.236;2023-03-13T01:46:46;2.03;;;1.93;;
10052;SDS011;52418;53.134;8.236;2023-03-13T01:49:12;2.00;;;1.90;;
10052;SDS011;52418;53.134;8.236;2023-03-13T01:51:49;2.00;;;1.90;;
10052;SDS011;52418;53.134;8.236;2023-03-13T01:54:20;2.10;;;2.00;;
10052;SDS011;52418;53.134;8.236;2023-03-13T01:56:47;2.10;;;2.00;;
10052;SDS011;52418;53.134;8.236;2023-03-13T01:59:14;2.00;;;1.90;;
10052;SDS011;52418;53.134;8.236;2023-03-13T02:01:41;2.10;;;2.00;;
10052;SDS011;52418;53.134;8.236;2023-03-13T02:04:07;2.20;;;2.10;;
10052;SDS011;52418;53.134;8.236;2023-03-13T02:06:33;2.20;;;2.10;;
10052;SDS011;52418;53.134;8.236;2023-03-13T02:09:02;2.13;;;2.03;;
10052;SDS011;52418;53.134;8.236;2023-03-13T02:14:06;2.30;;;2.20;;
10052;SDS011;52418;53.134;8.236;2023-03-13T02:16:32;2.07;;;1.97;;
10052;SDS011;52418;53.134;8.236;2023-03-13T02:18:58;2.00;;;1.90;;
10052;SDS011;52418;53.134;8.236;2023-03-13T02:23:50;2.05;;;1.95;;
10052;SDS011;52418;53.134;8.236;2023-03-13T02:26:16;2.10;;;2.00;;
10052;SDS011;52418;53.134;8.236;2023-03-13T02:28:41;2.00;;;1.90;;
10052;SDS011;52418;53.134;8.236;2023-03-13T02:31:07;2.00;;;1.90;;
10052;SDS011;52418;53.134;8.236;2023-03-13T02:33:34;2.10;;;2.00;;
10052;SDS011;52418;53.134;8.236;2023-03-13T02:36:00;2.03;;;1.93;;
10052;SDS011;52418;53.134;8.236;2023-03-13T02:38:27;2.00;;;1.90;;
10052;SDS011;52418;53.134;8.236;2023-03-13T02:40:53;1.97;;;1.87;;
10052;SDS011;52418;53.134;8.236;2023-03-13T02:43:29;2.10;;;2.00;;
10052;SDS011;52418;53.134;8.236;2023-03-13T02:46:08;1.87;;;1.77;;
10052;SDS011;52418;53.134;8.236;2023-03-13T02:48:39;1.90;;;1.80;;
10052;SDS011;52418;53.134;8.236;2023-03-13T02:51:05;1.90;;;1.80;;
10052;SDS011;52418;53.134;8.236;2023-03-13T02:53:32;1.80;;;1.70;;
10052;SDS011;52418;53.134;8.236;2023-03-13T02:55:58;1.90;;;1.80;;
10052;SDS011;52418;53.134;8.236;2023-03-13T02:58:24;2.00;;;1.90;;
10052;SDS011;52418;53.134;8.236;2023-03-13T03:00:50;2.00;;;1.90;;
10052;SDS011;52418;53.134;8.236;2023-03-13T03:03:15;2.00;;;1.90;;
10052;SDS011;52418;53.134;8.236;2023-03-13T03:05:40;2.00;;;1.90;;
10052;SDS011;52418;53.134;8.236;2023-03-13T03:08:06;2.10;;;2.00;;
10052;SDS011;52418;53.134;8.236;2023-03-13T03:10:31;2.10;;;2.00;;
10052;SDS011;52418;53.134;8.236;2023-03-13T03:12:56;2.00;;;1.90;;
10052;SDS011;52418;53.134;8.236;2023-03-13T03:15:21;2.20;;;2.10;;
10052;SDS011;52418;53.134;8.236;2023-03-13T03:17:47;2.00;;;1.90;;
10052;SDS011;52418;53.134;8.236;2023-03-13T03:20:12;2.07;;;1.97;;
10052;SDS011;52418;53.134;8.236;2023-03-13T03:22:38;2.00;;;1.90;;
10052;SDS011;52418;53.134;8.236;2023-03-13T03:25:05;2.10;;;2.00;;
10052;SDS011;52418;53.134;8.236;2023-03-13T03:27:30;1.90;;;1.80;;
10052;SDS011;52418;53.134;8.236;2023-03-13T03:29:55;2.10;;;2.00;;
10052;SDS011;52418;53.134;8.236;2023-03-13T03:32:21;2.10;;;2.00;;
10052;SDS011;52418;53.134;8.236;2023-03-13T03:34:46;2.00;;;1.90;;
10052;SDS011;52418;53.134;8.236;2023-03-13T03:37:11;1.80;;;1.70;;
10052;SDS011;52418;53.134;8.236;2023-03-13T03:39:36;2.00;;;1.90;;
10052;SDS011;52418;53.134;8.236;2023-03-13T03:42:01;1.90;;;1.80;;
10052;SDS011;52418;53.134;8.236;2023-03-13T03:44:28;1.90;;;1.80;;
10052;SDS011;52418;53.134;8.236;2023-03-13T03:46:53;1.90;;;1.80;;
10052;SDS011;52418;53.134;8.236;2023-03-13T03:49:18;1.90;;;1.80;;
10052;SDS011;52418;53.134;8.236;2023-03-13T03:51:44;1.90;;;1.80;;
10052;SDS011;52418;53.134;8.236;2023-03-13T03:54:09;1.92;;;1.83;;
10052;SDS011;52418;53.134;8.236;2023-03-13T03:56:34;2.10;;;2.00;;
10052;SDS011;52418;53.134;8.236;2023-03-13T03:58:59;1.90;;;1.80;;
10052;SDS011;52418;53.134;8.236;2023-03-13T04:01:24;2.17;;;2.07;;
10052;SDS011;52418;53.134;8.236;2023-03-13T04:03:49;2.10;;;2.00;;
10052;SDS011;52418;53.134;8.236;2023-03-13T04:06:14;2.20;;;2.10;;
10052;SDS011;52418;53.134;8.236;2023-03-13T04:08:40;2.20;;;2.10;;
10052;SDS011;52418;53.134;8.236;2023-03-13T04:11:05;2.00;;;1.90;;
10052;SDS011;52418;53.134;8.236;2023-03-13T04:13:30;2.27;;;2.17;;
10052;SDS011;52418;53.134;8.236;2023-03-13T04:15:55;2.23;;;2.13;;
10052;SDS011;52418;53.134;8.236;2023-03-13T04:18:20;2.28;;;2.17;;
10052;SDS011;52418;53.134;8.236;2023-03-13T04:20:45;2.28;;;2.17;;
10052;SDS011;52418;53.134;8.236;2023-03-13T04:23:10;2.10;;;2.00;;
10052;SDS011;52418;53.134;8.236;2023-03-13T04:25:36;2.00;;;1.90;;
10052;SDS011;52418;53.134;8.236;2023-03-13T04:28:01;2.20;;;2.10;;
10052;SDS011;52418;53.134;8.236;2023-03-13T04:30:26;2.40;;;2.30;;
10052;SDS011;52418;53.134;8.236;2023-03-13T04:32:51;2.20;;;2.10;;
10052;SDS011;52418;53.134;8.236;2023-03-13T04:35:16;2.10;;;2.00;;
10052;SDS011;52418;53.134;8.236;2023-03-13T04:37:42;2.10;;;2.00;;
10052;SDS011;52418;53.134;8.236;2023-03-13T04:40:07;2.03;;;1.92;;
10052;SDS011;52418;53.134;8.236;2023-03-13T04:42:33;1.90;;;1.80;;
10052;SDS011;52418;53.134;8.236;2023-03-13T04:44:58;2.00;;;1.90;;
10052;SDS011;52418;53.134;8.236;2023-03-13T04:47:23;1.92;;;1.83;;
10052;SDS011;52418;53.134;8.236;2023-03-13T04:49:48;1.98;;;1.88;;
10052;SDS011;52418;53.134;8.236;2023-03-13T04:52:13;2.00;;;1.90;;
10052;SDS011;52418;53.134;8.236;2023-03-13T04:54:38;2.00;;;1.90;;
10052;SDS011;52418;53.134;8.236;2023-03-13T04:57:04;2.20;;;2.10;;
10052;SDS011;52418;53.134;8.236;2023-03-13T04:59:30;2.10;;;2.00;;
10052;SDS011;52418;53.134;8.236;2023-03-13T05:01:55;2.10;;;2.00;;
10052;SDS011;52418;53.134;8.236;2023-03-13T05:04:20;2.10;;;2.00;;
10052;SDS011;52418;53.134;8.236;2023-03-13T05:06:45;2.00;;;1.90;;
10052;SDS011;52418;53.134;8.236;2023-03-13T05:09:10;2.10;;;2.00;;
10052;SDS011;52418;53.134;8.236;2023-03-13T05:11:35;1.93;;;1.83;;
10052;SDS011;52418;53.134;8.236;2023-03-13T05:14:01;2.00;;;1.90;;
10052;SDS011;52418;53.134;8.236;2023-03-13T05:16:26;2.10;;;2.00;;
10052;SDS011;52418;53.134;8.236;2023-03-13T05:18:51;2.10;;;2.00;;
10052;SDS011;52418;53.134;8.236;2023-03-13T05:21:16;2.00;;;1.90;;
10052;SDS011;52418;53.134;8.236;2023-03-13T05:23:41;2.00;;;1.90;;
10052;SDS011;52418;53.134;8.236;2023-03-13T05:26:07;2.10;;;2.00;;
10052;SDS011;52418;53.134;8.236;2023-03-13T05:28:32;2.10;;;2.00;;
10052;SDS011;52418;53.134;8.236;2023-03-13T05:30:57;1.97;;;1.87;;
10052;SDS011;52418;53.134;8.236;2023-03-13T05:33:22;1.90;;;1.80;;
10052;SDS011;52418;53.134;8.236;2023-03-13T05:35:47;1.90;;;1.80;;
10052;SDS011;52418;53.134;8.236;2023-03-13T05:38:13;1.90;;;1.80;;
10052;SDS011;52418;53.134;8.236;2023-03-13T05:40:38;1.90;;;1.80;;
10052;SDS011;52418;53.134;8.236;2023-03-13T05:43:03;1.90;;;1.80;;
10052;SDS011;52418;53.134;8.236;2023-03-13T05:45:28;2.00;;;1.90;;
10052;SDS011;52418;53.134;8.236;2023-03-13T05:47:53;2.10;;;2.00;;
10052;SDS011;52418;53.134;8.236;2023-03-13T05:50:18;1.90;;;1.80;;
10052;SDS011;52418;53.134;8.236;2023-03-13T05:52:44;1.90;;;1.80;;
10052;SDS011;52418;53.134;8.236;2023-03-13T05:55:09;1.90;;;1.80;;
10052;SDS011;52418;53.134;8.236;2023-03-13T05:57:34;1.90;;;1.80;;
10052;SDS011;52418;53.134;8.236;2023-03-13T05:59:59;2.07;;;1.97;;
10052;SDS011;52418;53.134;8.236;2023-03-13T06:02:24;1.90;;;1.80;;
10052;SDS011;52418;53.134;8.236;2023-03-13T06:04:49;2.07;;;1.97;;
10052;SDS011;52418;53.134;8.236;2023-03-13T06:07:15;2.00;;;1.90;;
10052;SDS011;52418;53.134;8.236;2023-03-13T06:09:40;1.90;;;1.80;;
10052;SDS011;52418;53.134;8.236;2023-03-13T06:12:06;2.00;;;1.90;;
10052;SDS011;52418;53.134;8.236;2023-03-13T06:14:31;1.90;;;1.80;;
10052;SDS011;52418;53.134;8.236;2023-03-13T06:16:56;2.00;;;1.90;;
10052;SDS011;52418;53.134;8.236;2023-03-13T06:19:21;1.80;;;1.70;;
10052;SDS011;52418;53.134;8.236;2023-03-13T06:21:48;1.90;;;1.80;;
10052;SDS011;52418;53.134;8.236;2023-03-13T06:24:13;1.80;;;1.70;;
10052;SDS011;52418;53.134;8.236;2023-03-13T06:26:38;1.95;;;1.85;;
10052;SDS011;52418;53.134;8.236;2023-03-13T06:29:03;1.73;;;1.63;;
10052;SDS011;52418;53.134;8.236;2023-03-13T06:31:29;2.00;;;1.90;;
10052;SDS011;52418;53.134;8.236;2023-03-13T06:33:54;1.80;;;1.70;;
10052;SDS011;52418;53.134;8.236;2023-03-13T06:36:19;1.90;;;1.80;;
10052;SDS011;52418;53.134;8.236;2023-03-13T06:38:45;1.83;;;1.73;;
10052;SDS011;52418;53.134;8.236;2023-03-13T06:41:10;1.90;;;1.80;;
10052;SDS011;52418;53.134;8.236;2023-03-13T06:43:35;2.00;;;1.90;;
10052;SDS011;52418;53.134;8.236;2023-03-13T06:46:03;2.00;;;1.90;;
10052;SDS011;52418;53.134;8.236;2023-03-13T06:48:29;1.80;;;1.70;;
10052;SDS011;52418;53.134;8.236;2023-03-13T06:50:54;1.83;;;1.73;;
10052;SDS011;52418;53.134;8.236;2023-03-13T06:53:20;1.90;;;1.80;;
10052;SDS011;52418;53.134;8.236;2023-03-13T06:55:46;1.90;;;1.80;;
10052;SDS011;52418;53.134;8.236;2023-03-13T06:58:11;1.90;;;1.80;;
10052;SDS011;52418;53.134;8.236;2023-03-13T07:00:37;1.90;;;1.80;;
10052;SDS011;52418;53.134;8.236;2023-03-13T07:03:04;2.00;;;1.90;;
10052;SDS011;52418;53.134;8.236;2023-03-13T07:05:29;2.00;;;1.90;;
10052;SDS011;52418;53.134;8.236;2023-03-13T07:07:55;2.00;;;1.90;;
10052;SDS011;52418;53.134;8.236;2023-03-13T07:10:20;2.07;;;1.97;;
10052;SDS011;52418;53.134;8.236;2023-03-13T07:12:45;2.10;;;2.00;;
10052;SDS011;52418;53.134;8.236;2023-03-13T07:15:10;2.10;;;2.00;;
10052;SDS011;52418;53.134;8.236;2023-03-13T07:17:35;2.25;;;2.15;;
10052;SDS011;52418;53.134;8.236;2023-03-13T07:20:01;2.20;;;2.10;;
10052;SDS011;52418;53.134;8.236;2023-03-13T07:22:26;2.20;;;2.10;;
10052;SDS011;52418;53.134;8.236;2023-03-13T07:24:51;2.10;;;2.00;;
10052;SDS011;52418;53.134;8.236;2023-03-13T07:27:17;2.07;;;1.97;;
10052;SDS011;52418;53.134;8.236;2023-03-13T07:29:44;2.20;;;2.10;;
10052;SDS011;52418;53.134;8.236;2023-03-13T07:32:09;2.03;;;1.93;;
10052;SDS011;52418;53.134;8.236;2023-03-13T07:34:35;2.30;;;2.20;;
10052;SDS011;52418;53.134;8.236;2023-03-13T07:37:00;2.00;;;1.90;;
10052;SDS011;52418;53.134;8.236;2023-03-13T07:39:25;2.10;;;2.00;;
10052;SDS011;52418;53.134;8.236;2023-03-13T07:41:50;1.90;;;1.80;;
10052;SDS011;52418;53.134;8.236;2023-03-13T07:44:15;1.97;;;1.87;;
10052;SDS011;52418;53.134;8.236;2023-03-13T07:46:41;2.00;;;1.90;;
10052;SDS011;52418;53.134;8.236;2023-03-13T07:49:06;1.90;;;1.80;;
10052;SDS011;52418;53.134;8.236;2023-03-13T07:51:31;2.17;;;2.07;;
10052;SDS011;52418;53.134;8.236;2023-03-13T07:53:56;2.17;;;2.07;;
10052;SDS011;52418;53.134;8.236;2023-03-13T07:56:22;2.20;;;2.10;;
10052;SDS011;52418;53.134;8.236;2023-03-13T07:58:47;2.03;;;1.93;;
10052;SDS011;52418;53.134;8.236;2023-03-13T08:01:20;2.17;;;2.07;;
10052;SDS011;52418;53.134;8.236;2023-03-13T08:03:47;2.20;;;2.10;;
10052;SDS011;52418;53.134;8.236;2023-03-13T08:06:15;2.40;;;2.30;;
10052;SDS011;52418;53.134;8.236;2023-03-13T08:08:41;2.20;;;2.10;;
10052;SDS011;52418;53.134;8.236;2023-03-13T08:11:14;2.30;;;2.20;;
10052;SDS011;52418;53.134;8.236;2023-03-13T08:13:40;1.90;;;1.80;;
10052;SDS011;52418;53.134;8.236;2023-03-13T08:18:32;2.00;;;1.90;;
10052;SDS011;52418;53.134;8.236;2023-03-13T08:21:02;2.03;;;1.93;;
10052;SDS011;52418;53.134;8.236;2023-03-13T08:23:28;2.00;;;1.90;;
10052;SDS011;52418;53.134;8.236;2023-03-13T08:25:53;2.20;;;2.10;;
10052;SDS011;52418;53.134;8.236;2023-03-13T08:28:18;2.08;;;1.98;;
10052;SDS011;52418;53.134;8.236;2023-03-13T08:30:43;2.10;;;2.00;;
10052;SDS011;52418;53.134;8.236;2023-03-13T08:33:08;2.08;;;1.98;;
10052;SDS011;52418;53.134;8.236;2023-03-13T08:35:34;2.10;;;2.00;;
10052;SDS011;52418;53.134;8.236;2023-03-13T08:37:59;2.20;;;2.10;;
10052;SDS011;52418;53.134;8.236;2023-03-13T08:40:24;2.10;;;2.00;;
10052;SDS011;52418;53.134;8.236;2023-03-13T08:42:49;2.27;;;2.17;;
10052;SDS011;52418;53.134;8.236;2023-03-13T08:45:14;2.33;;;2.23;;
10052;SDS011;52418;53.134;8.236;2023-03-13T08:47:40;2.33;;;2.23;;
10052;SDS011;52418;53.134;8.236;2023-03-13T08:50:05;2.40;;;2.30;;
10052;SDS011;52418;53.134;8.236;2023-03-13T08:52:31;2.63;;;2.53;;
10052;SDS011;52418;53.134;8.236;2023-03-13T08:54:56;2.60;;;2.50;;
10052;SDS011;52418;53.134;8.236;2023-03-13T08:57:21;2.30;;;2.20;;
10052;SDS011;52418;53.134;8.236;2023-03-13T08:59:47;2.40;;;2.30;;
10052;SDS011;52418;53.134;8.236;2023-03-13T09:02:13;2.53;;;2.43;;
10052;SDS011;52418;53.134;8.236;2023-03-13T09:04:43;2.60;;;2.50;;
10052;SDS011;52418;53.134;8.236;2023-03-13T09:07:08;2.30;;;2.20;;
10052;SDS011;52418;53.134;8.236;2023-03-13T09:09:34;2.20;;;2.10;;
10052;SDS011;52418;53.134;8.236;2023-03-13T09:11:59;2.40;;;2.30;;
10052;SDS011;52418;53.134;8.236;2023-03-13T09:14:25;2.40;;;2.30;;
10052;SDS011;52418;53.134;8.236;2023-03-13T09:16:50;2.40;;;2.30;;
10052;SDS011;52418;53.134;8.236;2023-03-13T09:19:15;2.60;;;2.50;;
10052;SDS011;52418;53.134;8.236;2023-03-13T09:21:41;2.50;;;2.40;;
10052;SDS011;52418;53.134;8.236;2023-03-13T09:24:06;2.40;;;2.30;;
10052;SDS011;52418;53.134;8.236;2023-03-13T09:26:31;2.20;;;2.10;;
10052;SDS011;52418;53.134;8.236;2023-03-13T09:28:57;2.30;;;2.20;;
10052;SDS011;52418;53.134;8.236;2023-03-13T09:31:23;2.20;;;2.10;;
10052;SDS011;52418;53.134;8.236;2023-03-13T09:33:49;2.20;;;2.10;;
10052;SDS011;52418;53.134;8.236;2023-03-13T09:36:14;2.20;;;2.10;;
10052;SDS011;52418;53.134;8.236;2023-03-13T09:38:40;2.13;;;2.03;;
10052;SDS011;52418;53.134;8.236;2023-03-13T09:46:10;2.20;;;2.10;;
10052;SDS011;52418;53.134;8.236;2023-03-13T09:48:40;2.50;;;2.40;;
10052;SDS011;52418;53.134;8.236;2023-03-13T09:53:43;1.90;;;1.80;;
10052;SDS011;52418;53.134;8.236;2023-03-13T09:56:12;1.90;;;1.80;;
10052;SDS011;52418;53.134;8.236;2023-03-13T09:58:38;1.90;;;1.80;;
10052;SDS011;52418;53.134;8.236;2023-03-13T10:01:05;1.80;;;1.70;;
10052;SDS011;52418;53.134;8.236;2023-03-13T10:03:34;1.90;;;1.80;;
10052;SDS011;52418;53.134;8.236;2023-03-13T10:06:19;2.10;;;2.00;;
10052;SDS011;52418;53.134;8.236;2023-03-13T10:08:44;2.20;;;2.10;;
10052;SDS011;52418;53.134;8.236;2023-03-13T10:11:10;2.40;;;2.30;;
10052;SDS011;52418;53.134;8.236;2023-03-13T10:13:46;2.10;;;2.00;;
10052;SDS011;52418;53.134;8.236;2023-03-13T10:16:20;2.50;;;2.40;;
10052;SDS011;52418;53.134;8.236;2023-03-13T10:18:47;2.70;;;2.60;;
10052;SDS011;52418;53.134;8.236;2023-03-13T10:21:16;2.40;;;2.30;;
10052;SDS011;52418;53.134;8.236;2023-03-13T10:23:43;2.50;;;2.40;;
10052;SDS011;52418;53.134;8.236;2023-03-13T10:26:25;2.57;;;2.47;;
10052;SDS011;52418;53.134;8.236;2023-03-13T10:28:52;2.43;;;2.33;;
10052;SDS011;52418;53.134;8.236;2023-03-13T10:33:46;2.20;;;2.10;;
10052;SDS011;52418;53.134;8.236;2023-03-13T10:36:12;2.37;;;2.27;;
10052;SDS011;52418;53.134;8.236;2023-03-13T10:38:46;2.30;;;2.20;;
10052;SDS011;52418;53.134;8.236;2023-03-13T10:41:34;2.10;;;2.00;;
10052;SDS011;52418;53.134;8.236;2023-03-13T10:44:02;2.30;;;2.20;;
10052;SDS011;52418;53.134;8.236;2023-03-13T10:46:32;2.20;;;2.10;;
10052;SDS011;52418;53.134;8.236;2023-03-13T10:49:02;2.37;;;2.27;;
10052;SDS011;52418;53.134;8.236;2023-03-13T10:51:38;2.20;;;2.10;;
10052;SDS011;52418;53.134;8.236;2023-03-13T10:59:42;2.50;;;2.40;;
10052;SDS011;52418;53.134;8.236;2023-03-13T11:02:18;2.30;;;2.20;;
10052;SDS011;52418;53.134;8.236;2023-03-13T11:04:44;2.40;;;2.30;;
10052;SDS011;52418;53.134;8.236;2023-03-13T11:07:14;2.10;;;2.00;;
10052;SDS011;52418;53.134;8.236;2023-03-13T11:09:40;2.40;;;2.30;;
10052;SDS011;52418;53.134;8.236;2023-03-13T11:12:13;2.10;;;2.00;;
10052;SDS011;52418;53.134;8.236;2023-03-13T11:14:41;2.20;;;2.10;;
10052;SDS011;52418;53.134;8.236;2023-03-13T11:17:14;2.30;;;2.20;;
10052;SDS011;52418;53.134;8.236;2023-03-13T11:35:38;2.30;;;2.20;;
10052;SDS011;52418;53.134;8.236;2023-03-13T11:38:12;2.23;;;2.13;;
10052;SDS011;52418;53.134;8.236;2023-03-13T12:06:21;1.90;;;1.80;;
10052;SDS011;52418;53.134;8.236;2023-03-13T12:11:39;2.20;;;2.10;;
10052;SDS011;52418;53.134;8.236;2023-03-13T12:19:46;1.90;;;1.80;;
10052;SDS011;52418;53.134;8.236;2023-03-13T12:25:02;1.25;;;1.25;;
10052;SDS011;52418;53.134;8.236;2023-03-13T12:44:47;1.00;;;1.00;;
10052;SDS011;52418;53.134;8.236;2023-03-13T12:58:06;1.30;;;1.30;;
10052;SDS011;52418;53.134;8.236;2023-03-13T13:00:34;1.10;;;1.10;;
10052;SDS011;52418;53.134;8.236;2023-03-13T13:03:01;1.20;;;1.20;;
10052;SDS011;52418;53.134;8.236;2023-03-13T13:05:30;1.20;;;1.20;;
10052;SDS011;52418;53.134;8.236;2023-03-13T13:07:55;1.10;;;1.10;;
10052;SDS011;52418;53.134;8.236;2023-03-13T13:10:21;1.00;;;1.00;;
10052;SDS011;52418;53.134;8.236;2023-03-13T13:15:33;1.20;;;1.20;;
10052;SDS011;52418;53.134;8.236;2023-03-13T13:18:00;1.10;;;1.10;;
10052;SDS011;52418;53.134;8.236;2023-03-13T13:22:54;1.10;;;1.10;;
10052;SDS011;52418;53.134;8.236;2023-03-13T13:27:48;1.20;;;1.20;;
10052;SDS011;52418;53.134;8.236;2023-03-13T13:32:48;1.20;;;1.20;;
10052;SDS011;52418;53.134;8.236;2023-03-13T13:35:18;1.05;;;1.05;;
10052;SDS011;52418;53.134;8.236;2023-03-13T13:37:44;1.10;;;1.10;;
10052;SDS011;52418;53.134;8.236;2023-03-13T13:40:23;1.13;;;1.13;;
10052;SDS011;52418;53.134;8.236;2023-03-13T13:42:57;1.10;;;1.10;;
10052;SDS011;52418;53.134;8.236;2023-03-13T13:45:34;1.20;;;1.20;;
10052;SDS011;52418;53.134;8.236;2023-03-13T13:51:18;1.25;;;1.25;;
10052;SDS011;52418;53.134;8.236;2023-03-13T13:53:32;1.25;;;1.25;;
10052;SDS011;52418;53.134;8.236;2023-03-13T13:56:00;1.30;;;1.30;;
10052;SDS011;52418;53.134;8.236;2023-03-13T13:58:27;1.20;;;1.20;;
10052;SDS011;52418;53.134;8.236;2023-03-13T14:00:58;1.20;;;1.20;;
10052;SDS011;52418;53.134;8.236;2023-03-13T14:03:28;1.15;;;1.15;;
10052;SDS011;52418;53.134;8.236;2023-03-13T14:08:45;1.20;;;1.20;;
10052;SDS011;52418;53.134;8.236;2023-03-13T14:11:25;1.10;;;1.10;;
10052;SDS011;52418;53.134;8.236;2023-03-13T14:14:08;1.20;;;1.20;;
10052;SDS011;52418;53.134;8.236;2023-03-13T14:16:33;1.13;;;1.13;;
10052;SDS011;52418;53.134;8.236;2023-03-13T14:18:58;1.10;;;1.10;;
10052;SDS011;52418;53.134;8.236;2023-03-13T14:21:23;1.10;;;1.10;;
10052;SDS011;52418;53.134;8.236;2023-03-13T14:23:49;1.10;;;1.10;;
10052;SDS011;52418;53.134;8.236;2023-03-13T14:26:24;1.15;;;1.15;;
10052;SDS011;52418;53.134;8.236;2023-03-13T14:28:51;1.10;;;1.10;;
10052;SDS011;52418;53.134;8.236;2023-03-13T14:31:21;1.10;;;1.10;;
10052;SDS011;52418;53.134;8.236;2023-03-13T14:33:46;1.30;;;1.30;;
10052;SDS011;52418;53.134;8.236;2023-03-13T14:36:12;1.10;;;1.10;;
10052;SDS011;52418;53.134;8.236;2023-03-13T14:38:37;1.10;;;1.10;;
10052;SDS011;52418;53.134;8.236;2023-03-13T14:41:02;1.10;;;1.10;;
10052;SDS011;52418;53.134;8.236;2023-03-13T14:43:35;1.17;;;1.17;;
10052;SDS011;52418;53.134;8.236;2023-03-13T14:46:10;1.00;;;1.00;;
10052;SDS011;52418;53.134;8.236;2023-03-13T14:48:36;1.10;;;1.10;;
10052;SDS011;52418;53.134;8.236;2023-03-13T14:51:03;1.00;;;1.00;;
10052;SDS011;52418;53.134;8.236;2023-03-13T14:53:32;1.00;;;1.00;;
10052;SDS011;52418;53.134;8.236;2023-03-13T14:56:08;1.00;;;1.00;;
10052;SDS011;52418;53.134;8.236;2023-03-13T14:58:34;1.10;;;1.10;;
10052;SDS011;52418;53.134;8.236;2023-03-13T15:00:59;1.05;;;1.05;;
10052;SDS011;52418;53.134;8.236;2023-03-13T15:03:35;1.10;;;1.10;;
10052;SDS011;52418;53.134;8.236;2023-03-13T15:08:36;1.10;;;1.10;;
10052;SDS011;52418;53.134;8.236;2023-03-13T15:11:16;1.20;;;1.20;;
10052;SDS011;52418;53.134;8.236;2023-03-13T15:13:44;1.13;;;1.13;;
10052;SDS011;52418;53.134;8.236;2023-03-13T15:16:14;1.00;;;1.00;;
10052;SDS011;52418;53.134;8.236;2023-03-13T15:18:40;1.10;;;1.10;;
10052;SDS011;52418;53.134;8.236;2023-03-13T15:23:36;1.10;;;1.10;;
10052;SDS011;52418;53.134;8.236;2023-03-13T15:26:02;1.10;;;1.10;;
10052;SDS011;52418;53.134;8.236;2023-03-13T15:28:27;1.20;;;1.20;;
10052;SDS011;52418;53.134;8.236;2023-03-13T15:30:53;1.10;;;1.10;;
10052;SDS011;52418;53.134;8.236;2023-03-13T15:33:19;1.10;;;1.10;;
10052;SDS011;52418;53.134;8.236;2023-03-13T15:35:45;1.13;;;1.13;;
10052;SDS011;52418;53.134;8.236;2023-03-13T15:38:14;1.10;;;1.10;;
10052;SDS011;52418;53.134;8.236;2023-03-13T15:40:40;1.17;;;1.17;;
10052;SDS011;52418;53.134;8.236;2023-03-13T15:43:05;1.10;;;1.10;;
10052;SDS011;52418;53.134;8.236;2023-03-13T15:45:31;1.10;;;1.10;;
10052;SDS011;52418;53.134;8.236;2023-03-13T15:47:56;1.17;;;1.17;;
10052;SDS011;52418;53.134;8.236;2023-03-13T15:50:21;1.10;;;1.10;;
10052;SDS011;52418;53.134;8.236;2023-03-13T15:52:53;1.08;;;1.08;;
10052;SDS011;52418;53.134;8.236;2023-03-13T15:55:18;1.10;;;1.10;;
10052;SDS011;52418;53.134;8.236;2023-03-13T15:57:44;1.00;;;1.00;;
10052;SDS011;52418;53.134;8.236;2023-03-13T16:02:39;1.00;;;1.00;;
10052;SDS011;52418;53.134;8.236;2023-03-13T16:05:04;1.17;;;1.17;;
10052;SDS011;52418;53.134;8.236;2023-03-13T16:07:29;1.13;;;1.13;;
10052;SDS011;52418;53.134;8.236;2023-03-13T16:09:55;1.10;;;1.10;;
10052;SDS011;52418;53.134;8.236;2023-03-13T16:12:20;1.02;;;1.02;;
10052;SDS011;52418;53.134;8.236;2023-03-13T16:14:45;1.23;;;1.23;;
10052;SDS011;52418;53.134;8.236;2023-03-13T16:17:12;1.10;;;1.10;;
10052;SDS011;52418;53.134;8.236;2023-03-13T16:19:38;1.20;;;1.20;;
10052;SDS011;52418;53.134;8.236;2023-03-13T16:22:13;1.10;;;1.10;;
10052;SDS011;52418;53.134;8.236;2023-03-13T16:24:38;1.20;;;1.20;;
10052;SDS011;52418;53.134;8.236;2023-03-13T16:27:14;1.08;;;1.08;;
10052;SDS011;52418;53.134;8.236;2023-03-13T16:29:40;1.10;;;1.10;;
10052;SDS011;52418;53.134;8.236;2023-03-13T16:32:05;1.10;;;1.10;;
10052;SDS011;52418;53.134;8.236;2023-03-13T16:34:30;1.00;;;1.00;;
10052;SDS011;52418;53.134;8.236;2023-03-13T16:36:55;1.00;;;1.00;;
10052;SDS011;52418;53.134;8.236;2023-03-13T16:39:21;1.10;;;1.10;;
10052;SDS011;52418;53.134;8.236;2023-03-13T16:41:46;1.20;;;1.20;;
10052;SDS011;52418;53.134;8.236;2023-03-13T16:44:11;1.00;;;1.00;;
10052;SDS011;52418;53.134;8.236;2023-03-13T16:46:37;1.20;;;1.20;;
10052;SDS011;52418;53.134;8.236;2023-03-13T16:49:03;1.10;;;1.10;;
10052;SDS011;52418;53.134;8.236;2023-03-13T16:51:28;1.10;;;1.10;;